Charlestown, MA

2:56 AM EDT on August 05, 2015 (GMT -0400)
North End waterfront Boston | | Change Station
CLOSE
Current Station
Personal Weather Station
Location: Boston, MA
Elevation: 39 ft
Nearby Weather Stations

Elev 39 ft 42.37 °N, 71.05 °W | Updated 55 seconds ago

Scattered Clouds
Scattered Clouds
71.6 °F
Feels Like 74 °F
N
4.9
Wind Variable Wind from WSW
Gusts 7.4 mph

Today
High -- | Low -- °F
--% Chance of Precip.
Yesterday
High -- | Low -- °F
Precip. -- in
5:40 AM 7:59 PM
Waning Gibbous, 70% visible
Pressure 29.88 in
Visibility 10.0 miles
Clouds Scattered Clouds 10000 ft
Heat Index 74 °F
Dew Point 62 °F
Humidity 72%
Rainfall 0.00 in
Snow Depth Not available.
UV 0.0 out of 12
Pollen 5.70 out of 12
Air Quality Not available.
Flu Activity Not available.
METAR KBOS 050654Z 23005KT 10SM SCT100 22/16 A2988 RMK AO2 SLP119 T02170156

More Conditions Fewer Conditions

Pressure 29.88 in
Visibility 10.0 miles
Clouds Scattered Clouds 10000 ft
Heat Index 74 °F
Dew Point 62 °F
Humidity 72%
Rainfall 0.00 in
Snow Depth Not available.
UV 0.0 out of 12
Pollen 5.70 out of 12
Air Quality Not available.
Flu Activity Not available.
METAR KBOS 050654Z 23005KT 10SM SCT100 22/16 A2988 RMK AO2 SLP119 T02170156

More Conditions Fewer Conditions

10-Day Weather Forecast

×

Almanac

Astronomy

Aug. 05, 2015 Rise Set
Actual Time
Civil Twilight
Nautical Twilight
Astronomical Twilight
Moon
Length of Visible Light
Length of Day
Tomorrow will be .
, % of the Moon is Illuminated

Today's Extremes

State Highs State Lows

Community

WunderPhotos

Upload Photos

1,844,105 photos uploaded!

WunderBlogs® & News

Nearby

Air Quality

  Air Quality AQ Index Pollutant
Not available.

Snow Depth

Station Depth Elevation

Earthquake Activity

City Distance Mag. Time & Date
Minimum magnitude displayed is 2.5.

Coastal Water Temperatures

Place Temperature

Stations

Nearby Weather Stations

Station Location Temp. Windchill Dew Point Humidity Wind Precip. Elev Updated Type